Accueil
METAR-TAF:

METAR-TAF

Aéroports :

Seward, Alaska, États-Unis

latitude: 60-07N, longitude: 149-27W, altitude: 9 m

Observation

Le bulletin a été fait il y a 26 minutes, à 21:53 UTC
Vent 15 kt de nord/nord-est avec des rafales jusqu'à 20 kt
Température -1°C
Humidité 46%
Pression 1011 hPa
Visibilité: 16.1 km
Ciel clair

METAR: PAWD 282153Z AUTO 02015G20KT 10SM CLR M01/M11 A2984 RMK AO2 PK WND 05026/2100 SLP103 T10111106 TSNO

Heure: 13:19 (22:19 UTC)


TAF: absent

Observations et prévisions météorologiques de plus de 4000 aéroports (messages METAR et TAF).

Les stations disponibles sont représentées par des disques jaunes et rouges sur la carte.

Passer la souris dessus pour voir le nom de la station.

Cliquer dessus pour voir les observations et prévisions météorologiques.

Pour changer de carte: cliquez sur les boutons verts avec une croix noire pour zoomer, sur le bouton vert avec un tiret pour effectuer un zoom arrière, ou sur les flèches vertes pour les cartes adjacentes.


METAR-TAF: